createdAt,value
2017-06-09T13:20:13.338Z,21.33
2017-06-09T13:21:25.741Z,21.45
2017-06-09T13:22:38.488Z,21.4
2017-06-09T13:23:51.384Z,21.49
2017-06-09T13:25:03.779Z,21.42
2017-06-09T13:26:16.190Z,21.51
2017-06-09T13:27:28.600Z,21.59
2017-06-09T13:28:41.499Z,21.7
2017-06-09T13:29:54.431Z,21.71
2017-06-09T13:31:06.913Z,21.9
2017-06-09T13:32:19.833Z,22.02
2017-06-09T13:33:32.933Z,22.01
2017-06-09T13:34:45.334Z,22.06
2017-06-09T13:35:57.741Z,22.11
2017-06-09T13:37:10.637Z,22.06
2017-06-09T13:38:23.532Z,22.09
2017-06-09T13:39:36.427Z,22.09
2017-06-09T13:40:49.321Z,22.09
2017-06-09T13:42:01.727Z,22.19
2017-06-09T13:43:14.622Z,22.05
2017-06-09T13:44:27.023Z,22.02
2017-06-09T13:45:39.631Z,22.05
2017-06-09T13:46:52.525Z,22.15
2017-06-09T13:48:05.439Z,22.31
2017-06-09T13:49:17.847Z,22.31
2017-06-09T13:50:30.744Z,22.41
2017-06-09T13:51:43.639Z,22.41
2017-06-09T13:52:56.534Z,22.48
2017-06-09T13:54:08.938Z,22.36
2017-06-09T13:55:21.341Z,22.27
2017-06-09T13:56:34.437Z,22.29
2017-06-09T13:57:47.335Z,22.17
2017-06-09T13:58:59.256Z,22.14
2017-06-09T14:00:12.152Z,22.14
2017-06-09T14:01:24.560Z,22.12
2017-06-09T14:02:37.167Z,22.31
2017-06-09T14:03:50.061Z,22.38
2017-06-09T14:05:02.971Z,22.45
2017-06-09T14:06:15.865Z,22.56
2017-06-09T14:07:28.760Z,22.6
2017-06-09T14:08:41.656Z,22.63
2017-06-09T14:09:54.064Z,22.59
2017-06-09T14:11:06.962Z,22.6
2017-06-09T14:12:19.857Z,22.57
2017-06-09T14:13:32.749Z,22.59
2017-06-09T14:14:45.160Z,22.6
2017-06-09T14:15:57.565Z,22.52
2017-06-09T14:17:09.980Z,22.46
2017-06-09T14:18:22.877Z,22.45
2017-06-09T14:19:35.770Z,22.45
2017-06-09T14:20:48.176Z,22.48
2017-06-09T14:22:01.076Z,22.46
2017-06-09T14:23:12.514Z,22.36
2017-06-09T14:24:25.617Z,22.33
2017-06-09T14:25:38.509Z,22.33
2017-06-09T14:26:50.429Z,22.31
2017-06-09T14:28:03.321Z,22.12
2017-06-09T14:29:16.216Z,22.35
2017-06-09T14:30:28.623Z,22.24
2017-06-09T14:31:41.034Z,22.42
2017-06-09T14:32:53.932Z,22.36
2017-06-09T14:34:06.828Z,22.45
2017-06-09T14:35:19.550Z,22.52
2017-06-09T14:36:31.989Z,22.38
2017-06-09T14:37:44.883Z,22.41
2017-06-09T14:38:57.779Z,22.44
2017-06-09T14:40:09.713Z,22.33
2017-06-09T14:41:22.622Z,22.39
2017-06-09T14:42:35.519Z,22.36
2017-06-09T14:43:47.940Z,22.45
2017-06-09T14:45:00.836Z,22.46
2017-06-09T14:46:13.734Z,22.3
2017-06-09T14:47:25.650Z,22.11
2017-06-09T14:48:38.553Z,22.27
2017-06-09T14:49:51.545Z,22.36
2017-06-09T14:51:04.441Z,22.41
2017-06-09T14:52:17.340Z,22.52
2017-06-09T14:53:30.234Z,22.46
2017-06-09T14:54:42.642Z,22.51
2017-06-09T14:55:55.741Z,22.45
2017-06-09T14:57:08.150Z,22.42
2017-06-09T14:58:20.559Z,22.35
2017-06-09T14:59:32.973Z,22.41
2017-06-09T15:00:45.871Z,22.41
2017-06-09T15:01:58.765Z,22.39
2017-06-09T15:03:11.181Z,22.42
2017-06-09T15:04:24.077Z,22.39
2017-06-09T15:05:36.973Z,22.39
2017-06-09T15:06:50.088Z,22.3
2017-06-09T15:08:02.507Z,22.3
2017-06-09T15:09:14.915Z,22.15
2017-06-09T15:10:26.838Z,22.09
2017-06-09T15:11:39.936Z,22.14
2017-06-09T15:12:52.832Z,22.15
2017-06-09T15:14:05.725Z,22.19
2017-06-09T15:15:18.135Z,22.23
2017-06-09T15:16:30.541Z,22.14
2017-06-09T15:17:43.638Z,22.19
2017-06-09T15:18:56.532Z,22.14
2017-06-09T15:20:08.951Z,22.11
2017-06-09T15:21:21.847Z,21.93
2017-06-09T15:22:34.744Z,21.94
2017-06-09T15:23:47.652Z,22.02
2017-06-09T15:25:00.545Z,21.96
2017-06-09T15:26:11.977Z,22.05
2017-06-09T15:27:24.889Z,22.04
2017-06-09T15:28:37.986Z,21.99
2017-06-09T15:29:50.408Z,21.99
2017-06-09T15:31:03.331Z,22.06
2017-06-09T15:32:15.758Z,21.99
2017-06-09T15:33:28.392Z,22.11
2017-06-09T15:34:41.402Z,22.14
2017-06-09T15:35:53.496Z,22.08
2017-06-09T15:37:06.600Z,22.21
2017-06-09T15:38:19.604Z,22.29
2017-06-09T15:39:32.578Z,22.27
2017-06-09T15:40:45.593Z,22.41
2017-06-09T15:41:58.564Z,22.39
2017-06-09T15:43:10.528Z,22.42
2017-06-09T15:44:22.998Z,22.39
2017-06-09T15:45:35.425Z,22.41
2017-06-09T15:46:48.345Z,22.45
2017-06-09T15:48:01.260Z,22.46
2017-06-09T15:49:14.180Z,22.44
2017-06-09T15:50:27.095Z,22.42
2017-06-09T15:51:40.017Z,22.26
2017-06-09T15:52:52.441Z,22.21
2017-06-09T15:54:05.371Z,22.04
2017-06-09T15:55:18.019Z,22.14
2017-06-09T15:56:30.934Z,22.17
2017-06-09T15:57:43.360Z,22.14
2017-06-09T15:58:56.300Z,22.19
2017-06-09T16:00:08.732Z,22.38
2017-06-09T16:01:21.170Z,22.41
2017-06-09T16:02:34.087Z,22.42
2017-06-09T16:03:47.002Z,22.48
2017-06-09T16:04:59.443Z,22.52
2017-06-09T16:06:11.904Z,22.46
2017-06-09T16:07:24.819Z,22.61
2017-06-09T16:08:37.737Z,22.59
2017-06-09T16:09:50.165Z,22.64
2017-06-09T16:11:03.084Z,22.63
2017-06-09T16:12:15.999Z,22.61
2017-06-09T16:13:28.911Z,22.61
2017-06-09T16:14:41.754Z,22.57
2017-06-09T16:15:54.540Z,22.51
2017-06-09T16:17:07.518Z,22.45
2017-06-09T16:18:20.298Z,22.56
2017-06-09T16:19:33.092Z,22.51
2017-06-09T16:20:45.391Z,22.49
2017-06-09T16:21:57.691Z,22.31
2017-06-09T16:23:10.676Z,22.42
2017-06-09T16:24:23.465Z,22.44
2017-06-09T16:25:35.774Z,22.46
2017-06-09T16:26:48.555Z,22.35
2017-06-09T16:28:01.041Z,22.12
2017-06-09T16:29:13.342Z,22.14
2017-06-09T16:30:26.130Z,22.09
2017-06-09T16:31:39.121Z,22.15
2017-06-09T16:32:51.904Z,22.17
2017-06-09T16:34:04.697Z,22.26
2017-06-09T16:35:17.004Z,22.14
2017-06-09T16:36:29.302Z,21.99
2017-06-09T16:37:42.282Z,21.98
2017-06-09T16:38:54.112Z,22.06
2017-06-09T16:40:06.899Z,21.98
2017-06-09T16:41:19.684Z,22.12
2017-06-09T16:42:32.668Z,22.17
2017-06-09T16:43:45.457Z,22.19
2017-06-09T16:44:57.781Z,22.31
2017-06-09T16:46:10.558Z,22.27
2017-06-09T16:47:23.341Z,22.36
2017-06-09T16:48:36.128Z,22.39
2017-06-09T16:49:48.937Z,22.42
2017-06-09T16:51:01.719Z,22.3
2017-06-09T16:52:14.017Z,22.31
2017-06-09T16:53:26.316Z,22.38
2017-06-09T16:54:39.097Z,22.45
2017-06-09T16:55:51.879Z,22.52
2017-06-09T16:57:03.700Z,22.59
2017-06-09T16:58:15.520Z,22.59
2017-06-09T16:59:28.372Z,22.61
2017-06-09T17:00:40.785Z,22.66
2017-06-09T17:01:53.201Z,22.72
2017-06-09T17:03:06.106Z,22.64
2017-06-09T17:04:19.042Z,22.63
2017-06-09T17:05:31.944Z,22.6
2017-06-09T17:06:44.841Z,22.51
2017-06-09T17:07:57.738Z,22.44
2017-06-09T17:09:10.640Z,22.45
2017-06-09T17:10:23.741Z,22.41
2017-06-09T17:11:36.638Z,22.3
2017-06-09T17:12:49.536Z,22.33
2017-06-09T17:14:02.428Z,22.29
2017-06-09T17:38:44.383Z,22.27
2017-06-09T17:39:57.147Z,22.38
2017-06-09T17:41:10.130Z,22.42
2017-06-09T17:42:23.114Z,22.15
2017-06-09T17:43:35.602Z,22.23
2017-06-09T17:44:48.102Z,22.19
2017-06-09T17:46:01.301Z,22.15
2017-06-09T17:47:14.304Z,22.19
2017-06-09T17:48:26.811Z,22.19
2017-06-09T17:49:39.812Z,22.17
2017-06-09T17:50:52.327Z,22.15
2017-06-09T17:52:05.525Z,22.2
2017-06-09T17:53:18.029Z,22.06
2017-06-09T17:54:30.539Z,22.01
2017-06-09T17:55:43.538Z,22.05
2017-06-09T17:56:56.535Z,21.91
2017-06-09T17:58:09.040Z,21.89
2017-06-09T17:59:21.484Z,21.98
2017-06-09T18:00:34.403Z,22.02
2017-06-09T18:01:47.319Z,22.11
2017-06-09T18:02:59.946Z,21.99
2017-06-09T18:04:12.373Z,22.04
2017-06-09T18:05:24.801Z,21.94
2017-06-09T18:06:37.716Z,22.02
2017-06-09T18:07:50.633Z,22.15
2017-06-09T18:09:03.547Z,22.11
2017-06-09T18:10:16.470Z,22.14
2017-06-09T18:11:28.903Z,22.14
2017-06-09T18:12:41.823Z,22.17
2017-06-09T18:13:54.250Z,22.15
2017-06-09T18:15:07.170Z,21.98
2017-06-09T18:16:20.092Z,22.11
2017-06-09T18:17:32.522Z,22.05
2017-06-09T18:18:45.437Z,21.94
2017-06-09T18:19:58.364Z,21.91
2017-06-09T18:21:10.791Z,21.91
2017-06-09T18:22:23.219Z,22.04
2017-06-09T18:23:35.157Z,21.9
2017-06-09T18:24:48.086Z,22.06
2017-06-09T18:26:00.510Z,22.01
2017-06-09T18:27:12.939Z,21.96
2017-06-09T18:28:25.861Z,21.91
2017-06-09T18:29:38.706Z,21.89
2017-06-09T18:30:50.521Z,21.79
2017-06-09T18:32:03.302Z,21.7
2017-06-09T18:33:16.082Z,21.59
2017-06-09T18:34:27.898Z,21.58
2017-06-09T18:35:40.680Z,21.56
2017-06-09T18:36:52.032Z,21.55
2017-06-09T18:38:04.820Z,21.55
2017-06-09T18:39:17.611Z,21.51
2017-06-09T18:40:30.402Z,21.4
2017-06-09T18:41:42.709Z,21.49
2017-06-09T18:42:55.007Z,21.4
2017-06-09T18:44:07.306Z,21.4
2017-06-09T18:45:20.091Z,21.37
2017-06-09T18:46:33.374Z,21.42
2017-06-09T18:47:46.156Z,21.51
2017-06-09T18:48:58.940Z,21.46
2017-06-09T18:50:11.246Z,21.51
2017-06-09T18:51:24.240Z,21.63
2017-06-09T18:52:37.021Z,21.58
2017-06-09T18:53:49.317Z,21.55
2017-06-09T18:55:02.104Z,21.58
2017-06-09T18:56:14.401Z,21.58
2017-06-09T18:57:27.393Z,21.64
2017-06-09T18:58:40.174Z,21.55
2017-06-09T18:59:52.963Z,21.71
2017-06-09T19:01:05.751Z,21.63
2017-06-09T19:02:18.248Z,21.51
2017-06-09T19:03:31.039Z,21.42
2017-06-09T19:04:43.345Z,21.38
2017-06-09T19:05:56.129Z,21.52
2017-06-09T19:07:08.906Z,21.51
2017-06-09T19:08:21.693Z,21.53
2017-06-09T19:09:34.472Z,21.46
2017-06-09T19:10:47.251Z,21.34
2017-06-09T19:11:59.548Z,21.38
2017-06-09T19:13:11.564Z,21.33
2017-06-09T19:14:24.350Z,21.36
2017-06-09T19:15:37.139Z,21.45
2017-06-09T19:16:49.928Z,21.38
2017-06-09T19:18:02.707Z,21.4
2017-06-09T19:19:15.204Z,21.4
2017-06-09T19:20:27.986Z,21.42
2017-06-09T19:21:40.284Z,21.33
2017-06-09T19:22:52.587Z,21.34
2017-06-09T19:24:05.383Z,21.21
2017-06-09T19:25:18.162Z,21.08
2017-06-09T19:26:30.966Z,21.09
2017-06-09T19:27:43.744Z,21.08
2017-06-09T19:28:56.531Z,21.03
2017-06-09T19:30:08.930Z,20.93
2017-06-09T19:31:21.229Z,20.82
2017-06-09T19:32:34.011Z,20.56
2017-06-09T19:33:46.823Z,20.54
2017-06-09T19:34:59.801Z,20.38
2017-06-09T19:36:12.099Z,20.44
2017-06-09T19:37:24.397Z,20.42
2017-06-09T19:38:37.178Z,20.48
2017-06-09T19:39:49.977Z,20.35
2017-06-09T19:41:02.758Z,20.41
2017-06-09T19:42:14.573Z,20.22
2017-06-09T19:43:27.359Z,20.33
2017-06-09T19:44:40.139Z,20.3
2017-06-09T19:45:55.963Z,20.16
2017-06-09T19:47:08.749Z,20.12
2017-06-09T19:48:21.527Z,20.01
2017-06-09T19:49:33.825Z,20.13
2017-06-09T19:50:46.607Z,20.13
2017-06-09T19:51:59.101Z,20.15
2017-06-09T19:53:11.884Z,19.97
2017-06-09T19:54:24.184Z,19.92
2017-06-09T19:55:36.961Z,19.98
2017-06-09T19:56:49.275Z,20.05
2017-06-09T19:58:02.055Z,19.92
2017-06-09T19:59:14.412Z,19.83
2017-06-09T20:00:27.314Z,19.8
2017-06-09T20:01:40.218Z,19.8
2017-06-09T20:02:53.114Z,19.72
2017-06-09T20:04:06.007Z,19.78
2017-06-09T20:05:18.411Z,19.8
2017-06-09T20:06:30.830Z,19.79
2017-06-09T20:07:43.730Z,19.6
2017-06-09T20:08:56.625Z,19.6
2017-06-09T20:10:09.033Z,19.7
2017-06-09T20:11:21.929Z,19.79
2017-06-09T20:12:34.828Z,19.65
2017-06-09T20:13:47.724Z,19.8
2017-06-09T20:15:00.136Z,19.67
2017-06-09T20:16:13.040Z,19.55
2017-06-09T20:17:25.937Z,19.52
2017-06-09T20:18:38.540Z,19.58
2017-06-09T20:19:51.438Z,19.5
2017-06-09T20:21:04.336Z,19.6
2017-06-09T20:22:16.747Z,19.58
2017-06-09T20:23:29.648Z,19.65
2017-06-09T20:24:41.566Z,19.61
2017-06-09T20:25:53.972Z,19.57
2017-06-09T20:27:06.378Z,19.58
2017-06-09T20:28:18.793Z,19.57
2017-06-09T20:29:31.201Z,19.64
2017-06-09T20:30:44.101Z,19.61
2017-06-09T20:31:56.512Z,19.7
2017-06-09T20:33:09.405Z,19.64
2017-06-09T20:34:22.302Z,19.53
2017-06-09T20:35:34.217Z,19.58
2017-06-09T20:36:47.112Z,19.67
2017-06-09T20:37:59.540Z,19.49
2017-06-09T20:39:12.438Z,19.61
2017-06-09T20:40:25.537Z,19.53
2017-06-09T20:41:38.436Z,19.57
2017-06-09T20:42:51.334Z,19.46
2017-06-09T20:44:03.726Z,19.46
2017-06-09T20:45:16.506Z,19.38
2017-06-09T20:46:28.325Z,19.3
2017-06-09T20:47:41.106Z,19.15
2017-06-09T20:48:53.402Z,19.17
2017-06-09T20:50:05.696Z,19.15
2017-06-09T20:51:17.514Z,19.25
2017-06-09T20:52:30.288Z,19.21
2017-06-09T20:53:42.783Z,19.25
2017-06-09T20:54:55.559Z,19.23
2017-06-09T20:56:08.343Z,19.17
2017-06-09T20:57:21.131Z,19.17
2017-06-09T20:58:33.908Z,19.17
2017-06-09T20:59:47.497Z,19.27
2017-06-09T21:00:59.795Z,19.27
2017-06-09T21:02:12.104Z,19.15
2017-06-09T21:03:24.886Z,19.05
2017-06-09T21:04:51.256Z,19.07
2017-06-09T21:06:04.061Z,19.05
2017-06-09T21:07:16.365Z,19.06
2017-06-09T21:08:28.671Z,19.09
2017-06-09T21:09:41.449Z,19.12
2017-06-09T21:10:54.228Z,19.1
2017-06-09T21:12:07.010Z,19.01
2017-06-09T21:13:19.807Z,18.94
2017-06-09T21:14:32.583Z,18.84
2017-06-09T21:15:45.359Z,18.9
2017-06-09T21:16:58.135Z,18.79
2017-06-09T21:18:09.949Z,18.87
2017-06-09T21:19:22.724Z,18.86
2017-06-09T21:20:35.021Z,18.89
2017-06-09T21:21:47.799Z,18.75
2017-06-09T21:23:00.572Z,18.76
2017-06-09T21:24:12.875Z,18.83
2017-06-09T21:25:24.696Z,18.72
2017-06-09T21:26:36.994Z,18.68
2017-06-09T21:27:49.772Z,18.74
2017-06-09T21:29:02.554Z,18.71
2017-06-09T21:30:15.337Z,18.71
2017-06-09T21:31:28.120Z,18.66
2017-06-09T21:32:40.416Z,18.68
2017-06-09T21:33:53.204Z,18.53
2017-06-09T21:35:05.984Z,18.41
2017-06-09T21:36:18.280Z,18.41
2017-06-09T21:37:30.577Z,18.42
2017-06-09T21:38:42.876Z,18.41
2017-06-09T21:39:55.657Z,18.38
2017-06-09T21:41:08.434Z,18.38
2017-06-09T21:42:21.210Z,18.36
2017-06-09T21:43:33.988Z,18.36
2017-06-09T21:44:46.288Z,18.39
2017-06-09T21:45:58.584Z,18.29
2017-06-09T21:47:11.382Z,18.31
2017-06-09T21:48:24.169Z,18.32
2017-06-09T21:49:36.948Z,18.38
2017-06-09T21:50:49.728Z,18.44
2017-06-09T21:52:02.022Z,18.46
2017-06-09T21:53:14.325Z,18.56
2017-06-09T21:54:27.934Z,18.51
2017-06-09T21:55:40.736Z,18.62
2017-06-09T21:56:52.553Z,18.41
2017-06-09T21:58:04.854Z,18.36
2017-06-09T21:59:16.675Z,18.34
2017-06-09T22:00:29.454Z,18.19
2017-06-09T22:01:42.235Z,18.19
2017-06-09T22:02:55.015Z,18.29
2017-06-09T22:04:07.792Z,18.35
2017-06-09T22:05:20.090Z,18.34
2017-06-09T22:06:32.873Z,18.28
2017-06-09T22:07:45.651Z,18.23
2017-06-09T22:08:58.427Z,18.2
2017-06-09T22:10:10.440Z,18.14
2017-06-09T22:11:22.732Z,18.07
2017-06-09T22:12:35.508Z,17.96
2017-06-09T22:13:48.286Z,17.98
2017-06-09T22:15:01.345Z,17.94
2017-06-09T22:16:13.283Z,18.01
2017-06-09T22:17:26.195Z,17.89
2017-06-09T22:18:39.113Z,17.83
2017-06-09T22:19:52.029Z,17.74
2017-06-09T22:21:04.947Z,17.77
2017-06-09T22:22:17.371Z,17.92
2017-06-09T22:23:30.287Z,17.96
2017-06-09T22:24:41.733Z,17.86
2017-06-09T22:25:54.849Z,17.83
2017-06-09T22:27:06.780Z,17.86
2017-06-09T22:28:19.693Z,17.87
2017-06-09T22:29:32.607Z,17.91
2017-06-09T22:30:45.519Z,17.87
2017-06-09T22:31:58.637Z,17.92
2017-06-09T22:33:11.060Z,17.86
2017-06-09T22:34:23.481Z,18.02
2017-06-09T22:35:36.400Z,17.89
2017-06-09T22:36:49.317Z,17.81
2017-06-09T22:38:02.230Z,17.73
2017-06-09T22:39:13.676Z,17.73
2017-06-09T22:40:26.104Z,17.55
2017-06-09T22:41:39.016Z,17.62
2017-06-09T22:42:50.654Z,17.58
2017-06-09T22:44:03.079Z,17.63
2017-06-09T22:45:15.999Z,17.62
2017-06-09T22:46:27.931Z,17.79
2017-06-09T22:47:41.044Z,17.74
2017-06-09T22:48:53.959Z,17.66
2017-06-09T22:50:06.879Z,17.71
2017-06-09T22:51:19.793Z,17.77
2017-06-09T22:52:32.219Z,17.76
2017-06-09T22:53:45.334Z,17.74
2017-06-09T22:54:58.253Z,17.77
2017-06-09T22:56:10.674Z,17.86
2017-06-09T22:57:23.590Z,17.81
2017-06-09T22:58:36.245Z,17.83
2017-06-09T22:59:48.683Z,17.89
2017-06-09T23:01:01.540Z,17.68
2017-06-09T23:02:14.402Z,17.7
2017-06-09T23:03:27.261Z,17.51
2017-06-09T23:04:40.127Z,17.55
2017-06-09T23:05:52.992Z,17.58
2017-06-09T23:07:05.361Z,17.58
2017-06-09T23:08:18.221Z,17.65
2017-06-09T23:09:31.078Z,17.49
2017-06-09T23:10:43.454Z,17.57
2017-06-09T23:11:56.314Z,17.53
2017-06-09T23:13:09.168Z,17.7
2017-06-09T23:14:21.057Z,17.7
2017-06-09T23:15:33.916Z,17.79
2017-06-09T23:16:46.777Z,17.84
2017-06-09T23:17:59.638Z,17.89
2017-06-09T23:19:12.498Z,17.73
2017-06-09T23:20:25.357Z,17.46
2017-06-09T23:21:38.219Z,17.53
2017-06-09T23:22:50.592Z,17.65
2017-06-09T23:24:03.446Z,17.47
2017-06-09T23:25:16.304Z,17.45
2017-06-09T23:26:29.363Z,17.6
2017-06-09T23:27:42.222Z,17.57
2017-06-09T23:28:54.602Z,17.51
2017-06-09T23:30:06.978Z,17.55
2017-06-09T23:31:19.546Z,17.54
2017-06-09T23:32:32.373Z,17.55
2017-06-09T23:33:45.151Z,17.62
2017-06-09T23:34:57.445Z,17.53
2017-06-09T23:36:09.739Z,17.54
2017-06-09T23:37:21.557Z,17.49
2017-06-09T23:38:34.338Z,17.43
2017-06-09T23:39:46.636Z,17.36
2017-06-09T23:40:59.433Z,17.39
2017-06-09T23:42:12.230Z,17.47
2017-06-09T23:43:25.043Z,17.43
2017-06-09T23:44:37.838Z,17.42
2017-06-09T23:45:49.671Z,17.42
2017-06-09T23:47:02.490Z,17.35
2017-06-09T23:48:14.301Z,17.38
2017-06-09T23:49:27.079Z,17.43
2017-06-09T23:50:39.376Z,17.36
2017-06-09T23:51:51.673Z,17.4
2017-06-09T23:53:04.450Z,17.42
2017-06-09T23:54:16.744Z,17.42
2017-06-09T23:55:29.520Z,17.42
2017-06-09T23:56:42.299Z,17.4
2017-06-09T23:57:54.614Z,17.46
2017-06-09T23:59:07.423Z,17.47
